Tiempo atmosférico en la estación meteorológica de Benasque, Huesca (1120 m.)



Fecha
DESCASC
Temp. máxima en grados centígrados (hora)
DESCASC
Temp. mínima en grados centígrados (hora)
DESCASC
Temp. media en grados centígrados
DESCASC
Racha de viento máxima en m/sg (hora)
DESCASC
Velocidad máxima media en intervalos de 10 minutos(hora)
DESCASC
Precipitaciones diarias en mm
DESCASC
Precipitaciones de 00:00 a 06:00 en mm
DESCASC
Precipitaciones de 06:00 a 12:00 en mm
DESCASC
Precipitaciones de 12:00 a 18:00 en mm
DESCASC
Precipitaciones de 18:00 a 24:00 en mm
DESCASC
21-02-2021 14.9 (13:40) -0.6 (04:50) 7.1 13.61 (15:20) 7.78 (15:20) 3 0 0 0 3
20-02-2021 15.3 (16:30) -2.4 (07:50) 6.5 11.11 (17:20) 6.39 (14:10) 0 0 0 0 0
19-02-2021 14.9 (14:50) -2.1 (07:50) 6.4 7.5 (16:00) 4.17 (14:20) 0 0 0 0 0
18-02-2021 15.5 (14:40) -1.2 (-00:0) 7.1 10.56 (14:10) 5 (15:00) 0 0 0 0 0
17-02-2021 14.6 (15:30) -1.2 (-00:0) 6.7 8.89 (15:10) 4.72 (13:50) 0 0 0 0 0
16-02-2021 18.5 (15:30) -2.8 (-00:0) 7.9 11.11 (16:30) 4.72 (16:30) 0 0 0 0 0
15-02-2021 11.6 (16:10) -0.3 (00:00) 5.7 5.28 (15:50) 3.89 (15:50) 0 0 0 0 0
14-02-2021 10.8 (15:00) -4.3 (-00:0) 3.3 7.5 (16:20) 5 (16:20) 0 0 0 0 0
13-02-2021 14.9 (15:10) -0.4 (00:00) 7.2 17.78 (01:40) 8.89 (00:10) 0 0 0 0 0
12-02-2021 8.9 (21:10) -1.3 (-00:0) 3.8 21.11 (21:00) 10 (21:00) 2 0 0.4 1.6 0
11-02-2021 14.4 (16:10) -6.7 (-00:0) 3.8 4.44 (10:30) 2.22 (17:20) 0 0 0 0 0
10-02-2021 9.6 (14:30) -4.2 (-00:0) 2.7 6.39 (15:00) 3.06 (15:50) 0.4 0.4 0 0 0
09-02-2021 0.7 (11:40) -3.6 (-00:0) -1.4 4.72 (04:50) 2.22 (04:40) 18.8 0 0.2 13.2 5.4
08-02-2021 4.1 (17:10) -2 (-00:0) 1 2.78 (01:50) 1.94 (11:30) 0.6 0 0 0.4 0.2
07-02-2021 9.5 (15:00) -0.4 (00:00) 4.5 13.33 (08:10) 7.22 (10:50) 0 0 0 0 0
06-02-2021 9.8 (13:50) 3 (00:00) 6.4 9.17 (08:40) 4.17 (08:40) 5.6 0.8 1.8 0.2 2.8
05-02-2021 15.2 (13:00) 2.6 (00:00) 8.9 7.5 (15:30) 3.89 (15:40) 0.2 0.2 0 0 0
04-02-2021 13.5 (15:30) 2.5 (00:00) 8 5.56 (14:30) 3.61 (14:30) 0 0 0 0 0
03-02-2021 14.4 (13:40) -1.2 (-00:0) 6.6 7.5 (17:30) 4.44 (14:00) 0 0 0 0 0
02-02-2021 14.8 (15:30) -0.9 (-00:0) 7 5.28 (15:10) 3.61 (15:10) 0 0 0 0 0
01-02-2021 13.3 (16:50) 1.2 (00:00) 7.3 21.39 (16:10) 10.56 (16:00) 2.6 2.4 0 0.2 0
31-01-2021 15.4 (15:30) 0.1 (00:00) 7.7 21.67 (10:10) 9.17 (10:00) 2 0.4 0.2 0 1.4
30-01-2021 9.5 (11:50) -0.4 (00:00) 4.5 8.61 (12:50) 4.17 (16:20) 3 0 2.2 0.8 0
29-01-2021 15.3 (14:20) -0.4 (00:00) 7.5 6.39 (22:20) 2.78 (13:50) 0 0 0 0 0
28-01-2021 16 (15:50) -0.8 (-00:0) 7.6 3.89 (10:00) 2.22 (10:00) 0 0 0 0 0
27-01-2021 15.4 (16:40) -1.4 (-00:0) 7 14.17 (15:50) 6.11 (15:50) 6.2 2.2 4 0 0
26-01-2021 9.9 (15:00) -5.8 (-00:0) 2 3.61 (19:00) 2.22 (15:10) 0 0 0 0 0
25-01-2021 7.7 (17:00) -3.2 (-00:0) 2.2 14.72 (19:50) 7.78 (19:50) 0 0 0 0 0

Gráficas

Temp. máximas Temp. mínimas Temp. medias Precipitaciones Rachas de viento máximas Velocidades máximas media en intervalos de 10 minutos

Datos horarios

Fecha y hora oficial Temperatura (ºC) Velocidad del viento (km/h) Dirección del viento Racha (km/h) Dirección de racha Precipitación (mm) Presión (hPa) Tendencia (hPa) Humedad (%)
2021-02-23 23:00:00 2 3 Oeste 5 Oeste 0 -- -- 97
2021-02-23 22:00:00 2.6 0 Calma 6 Sudeste 0 -- -- 97
2021-02-23 21:00:00 3.5 0 Calma 6 Sudeste 0 -- -- 95
2021-02-23 20:00:00 5.3 3 Este 8 Nordeste 0 -- -- 90
2021-02-23 19:00:00 8 0 Calma 5 Sudeste 0 -- -- 86
2021-02-23 18:00:00 10.5 0 Calma 6 Sur 0 -- -- 79
2021-02-23 17:00:00 11 2 Sur 9 Sur 0 -- -- 66
2021-02-23 16:00:00 11.4 4 Sudoeste 16 Sudoeste 0 -- -- 63
2021-02-23 15:00:00 11.4 9 Sudoeste 22 Sudoeste 0 -- -- 64
2021-02-23 14:00:00 10.8 12 Sudoeste 25 Oeste 0 -- -- 71
2021-02-23 13:00:00 10.6 10 Sudoeste 22 Sudoeste 0 -- -- 72
2021-02-23 12:00:00 9.4 3 Sudeste 7 Sudeste 0 -- -- 78
2021-02-23 11:00:00 7.2 4 Noroeste 8 Sudoeste 0 -- -- 94
2021-02-23 10:00:00 5.7 3 Sudeste 9 Oeste 0 -- -- 99
2021-02-23 09:00:00 4.7 4 Sur 7 Sudoeste 0 -- -- 99
2021-02-23 08:00:00 4.3 4 Sudoeste 9 Oeste 0 -- -- 99
2021-02-23 07:00:00 4.3 3 Sudeste 9 Oeste 0.2 -- -- 99
2021-02-23 06:00:00 4.4 0 Calma 9 Sudoeste 0.4 -- -- 99
2021-02-23 05:00:00 4.3 0 Calma 5 Sudeste 0.2 -- -- 99
2021-02-23 04:00:00 4.5 2 Oeste 13 Sudoeste 0.4 -- -- 99
2021-02-23 03:00:00 4.5 2 Oeste 9 Oeste 0.2 -- -- 99
2021-02-23 02:00:00 4.6 3 Este 5 Sudeste 0 -- -- 98
2021-02-23 01:00:00 4.8 4 Sudoeste 10 Sur 0.4 -- -- 98
2021-02-23 00:00:00 4.7 2 Sur 10 Sudoeste 1 -- -- 99
2021-02-22 23:00:00 4.5 0 Calma 7 Sudeste 0.2 -- -- 98
2021-02-22 22:00:00 4.5 2 Sudeste 8 Oeste 0.2 -- -- 98
2021-02-22 21:00:00 4.5 5 Este 12 Oeste 0.8 -- -- 98
2021-02-22 20:00:00 4.5 0 Calma 7 Noroeste 0.4 -- -- 97
2021-02-22 19:00:00 4.6 2 Sudoeste 13 Noroeste 0.2 -- -- 94
2021-02-22 18:00:00 4.9 3 Nordeste 9 Noroeste 0.8 -- -- 93
2021-02-22 17:00:00 5.5 2 Norte 9 Nordeste 0.8 -- -- 92
2021-02-22 16:00:00 5.2 4 Nordeste 8 Norte 0.8 -- -- 93
2021-02-22 15:00:00 5.7 3 Norte 8 Norte 1.2 -- -- 93
2021-02-22 14:00:00 5.3 2 Este 9 Norte 2 -- -- 94
2021-02-22 13:00:00 4.7 0 Calma 9 Norte 2.8 -- -- 96
2021-02-22 12:00:00 4.3 3 Norte 8 Este 2.8 -- -- 94
2021-02-22 11:00:00 4.3 2 Norte 16 Sudeste 3.2 -- -- 94
2021-02-22 10:00:00 4.9 7 Sudeste 22 Oeste 4.4 -- -- 93
2021-02-22 09:00:00 6.3 11 Sudoeste 54 Sudoeste 2.2 -- -- 86
2021-02-22 08:00:00 7.7 11 Sudoeste 28 Sur 0.2 -- -- 81
2021-02-22 07:00:00 7.1 8 Sur 29 Sudoeste 0.8 -- -- 88
2021-02-22 06:00:00 6.7 5 Sudeste 17 Oeste 0.6 -- -- 91
2021-02-22 05:00:00 7.9 11 Sudoeste 31 Oeste 0.4 -- -- 81
2021-02-22 04:00:00 5.7 5 Sudoeste 15 Sur 0.2 -- -- 98
2021-02-22 03:00:00 5.5 4 Nordeste 8 Noroeste 0.8 -- -- 98
2021-02-22 02:00:00 5.5 4 Sudeste 9 Este 1.6 -- -- 97
2021-02-22 01:00:00 5.9 4 Nordeste 12 Sur 2.2 -- -- 94
2021-02-22 00:00:00 6.1 3 Sudoeste 8 Sur 2.4 -- -- 95
2021-02-21 23:00:00 7.4 4 Sur 28 Sudeste 0.6 -- -- 81
2021-02-21 22:00:00 9.7 8 Sudoeste 13 Oeste 0 -- -- 58
2021-02-21 21:00:00 10.6 6 Sudoeste 14 Sur 0 -- -- 50
2021-02-21 20:00:00 11 8 Sudeste 14 Sudeste 0 -- -- 48
2021-02-21 19:00:00 10.7 5 Sur 15 Sudoeste 0 -- -- 49
2021-02-21 18:00:00 11.2 3 Sudoeste 18 Oeste 0 -- -- 47
2021-02-21 17:00:00 12 14 Sudoeste 35 Sudoeste 0 -- -- 43
2021-02-21 16:00:00 12.6 22 Sudoeste 49 Oeste 0 -- -- 40
2021-02-21 15:00:00 13.1 17 Sudoeste 45 Sudoeste 0 -- -- 37
2021-02-21 14:00:00 13.9 17 Sudoeste 39 Sudoeste 0 -- -- 37
2021-02-21 13:00:00 13.8 16 Sudoeste 42 Oeste 0 -- -- 32
2021-02-21 12:00:00 14.2 25 Sudoeste 41 Sudoeste 0 -- -- 30
2021-02-21 11:00:00 12.8 13 Sudoeste 23 Sur 0 -- -- 28
2021-02-21 10:00:00 10.3 4 Sur 11 Sudeste 0 -- -- 35
2021-02-21 09:00:00 4.7 2 Nordeste 6 Norte 0 -- -- 68
2021-02-21 08:00:00 1.7 4 Nordeste 9 Sudeste 0 -- -- 71
2021-02-21 07:00:00 0.1 4 Nordeste 9 Sudeste 0 -- -- 75
2021-02-21 06:00:00 -0.3 0 Calma 8 Nordeste 0 -- -- 78
2021-02-21 05:00:00 -0.5 2 Nordeste 6 Sudeste 0 -- -- 80
2021-02-21 04:00:00 0.4 2 Este 6 Norte 0 -- -- 75
2021-02-21 03:00:00 0.3 4 Este 7 Sudeste 0 -- -- 75
2021-02-21 02:00:00 1.2 0 Calma 5 Sudeste 0 -- -- 76
2021-02-21 01:00:00 2.5 0 Calma 6 Norte 0 -- -- 72
2021-02-21 00:00:00 2.9 3 Este 6 Sudeste 0 -- -- 71
2021-02-20 23:00:00 3.8 2 Este 5 Noroeste 0 -- -- 69
2021-02-20 22:00:00 5 0 Calma 5 Sudoeste 0 -- -- 63
2021-02-20 21:00:00 6.1 0 Calma 14 Sudoeste 0 -- -- 57
2021-02-20 20:00:00 8.2 3 Oeste 14 Sur 0 -- -- 49
2021-02-20 19:00:00 10.2 5 Sur 23 Oeste 0 -- -- 38
2021-02-20 18:00:00 13.4 13 Sudoeste 40 Oeste 0 -- -- 31
2021-02-20 17:00:00 14.7 18 Oeste 32 Sudoeste 0 -- -- 31
2021-02-20 16:00:00 14.7 22 Oeste 33 Oeste 0 -- -- 31
2021-02-20 15:00:00 13.8 17 Sudoeste 35 Oeste 0 -- -- 33
2021-02-20 14:00:00 14.3 21 Oeste 38 Oeste 0 -- -- 32
2021-02-20 13:00:00 14.3 22 Oeste 38 Sudoeste 0 -- -- 33
2021-02-20 12:00:00 13.4 19 Sudoeste 30 Sudoeste 0 -- -- 38
2021-02-20 11:00:00 10 0 Calma 5 Sudeste 0 -- -- 55
2021-02-20 10:00:00 4.2 2 Sudeste 6 Este 0 -- -- 80
2021-02-20 09:00:00 -1.5 3 Sudeste 5 Sudeste 0 -- -- 93
2021-02-20 08:00:00 -2.2 0 Calma 4 Sudeste 0 -- -- 95
2021-02-20 07:00:00 -2.1 2 Este 4 Sudeste 0 -- -- 95
2021-02-20 06:00:00 -2 0 Calma 5 Este 0 -- -- 93
2021-02-20 05:00:00 -2.1 0 Calma 4 Sudeste 0 -- -- 94
2021-02-20 04:00:00 -1.6 2 Norte 4 Oeste 0 -- -- 93
2021-02-20 03:00:00 -1.3 2 Este 5 Este 0 -- -- 92
2021-02-20 02:00:00 -0.8 0 Calma 6 Sudeste 0 -- -- 92
2021-02-20 01:00:00 -0.5 0 Calma 4 Este 0 -- -- 90
2021-02-20 00:00:00 -0.2 0 Calma 5 Sudeste 0 -- -- 89
2021-02-19 23:00:00 0.4 0 Calma 4 Este 0 -- -- 85
2021-02-19 22:00:00 1.8 0 Calma 4 Sudeste 0 -- -- 80
2021-02-19 21:00:00 2.3 0 Calma 5 Sudeste 0 -- -- 78
2021-02-19 20:00:00 4.4 0 Calma 6 Oeste 0 -- -- 70
2021-02-19 19:00:00 7.3 2 Este 18 Sudoeste 0 -- -- 60
2021-02-19 18:00:00 11.6 12 Sudoeste 24 Oeste 0 -- -- 47
2021-02-19 17:00:00 13.6 10 Sur 24 Sudoeste 0 -- -- 38
2021-02-19 16:00:00 14.3 13 Sudoeste 27 Sudoeste 0 -- -- 38
2021-02-19 15:00:00 14.3 13 Sudoeste 27 Sudoeste 0 -- -- 38
2021-02-19 14:00:00 13.9 12 Sudoeste 23 Sudoeste 0 -- -- 39
2021-02-19 13:00:00 13.1 8 Sur 23 Sudoeste 0 -- -- 40
2021-02-19 12:00:00 11 4 Sudoeste 9 Sur 0 -- -- 52
2021-02-19 11:00:00 8.7 0 Calma 5 Este 0 -- -- 58
2021-02-19 10:00:00 3.3 0 Calma 5 Sudeste 0 -- -- 82
2021-02-19 09:00:00 -1.1 0 Calma 6 Oeste 0 -- -- 95
2021-02-19 08:00:00 -2.1 0 Calma 4 Este 0 -- -- 96
2021-02-19 07:00:00 -1.5 2 Este 4 Nordeste 0 -- -- 96
2021-02-19 06:00:00 -1.3 3 Sudeste 5 Sudeste 0 -- -- 95
2021-02-19 05:00:00 -0.7 2 Nordeste 4 Nordeste 0 -- -- 95
2021-02-19 04:00:00 -0.6 0 Calma 5 Sudeste 0 -- -- 92
2021-02-19 03:00:00 0.1 0 Calma 5 Sudeste 0 -- -- 89
2021-02-19 02:00:00 0.3 0 Calma 4 Sudeste 0 -- -- 89
2021-02-19 01:00:00 1.8 2 Este 5 Sudeste 0 -- -- 84
2021-02-19 00:00:00 2.8 0 Calma 5 Sudeste 0 -- -- 82
2021-02-18 23:00:00 4.4 3 Noroeste 6 Oeste 0 -- -- 77
2021-02-18 22:00:00 5.3 3 Este 11 Oeste 0 -- -- 73
2021-02-18 21:00:00 5.3 3 Este 9 Oeste 0 -- -- 72
2021-02-18 20:00:00 5.4 4 Nordeste 11 Norte 0 -- -- 67
2021-02-18 19:00:00 7 3 Nordeste 12 Sudoeste 0 -- -- 64
2021-02-18 18:00:00 12.1 4 Sudoeste 21 Sudoeste 0 -- -- 41
2021-02-18 17:00:00 14.5 8 Sur 27 Sur 0 -- -- 33
2021-02-18 16:00:00 14.7 15 Sudeste 34 Sudeste 0 -- -- 29
2021-02-18 15:00:00 15 18 Sudoeste 38 Sur 0 -- -- 31
2021-02-18 14:00:00 14.7 13 Sur 31 Sur 0 -- -- 34
2021-02-18 13:00:00 14 11 Sur 35 Sur 0 -- -- 35
2021-02-18 12:00:00 13.6 15 Sur 33 Sur 0 -- -- 35
2021-02-18 11:00:00 8.7 5 Sudoeste 9 Sudoeste 0 -- -- 64
2021-02-18 10:00:00 4.3 0 Calma 6 Este 0 -- -- 93
2021-02-18 09:00:00 -0.5 0 Calma 6 Este 0 -- -- 98
2021-02-18 08:00:00 -1.2 0 Calma 4 Sudeste 0 -- -- 98
2021-02-18 07:00:00 -0.8 0 Calma 5 Nordeste 0 -- -- 98
2021-02-18 06:00:00 0.2 0 Calma 5 Sudeste 0 -- -- 98
2021-02-18 05:00:00 0.8 3 Nordeste 5 Norte 0 -- -- 98
2021-02-18 04:00:00 1.2 0 Calma 5 Sur 0 -- -- 96
2021-02-18 03:00:00 2.2 3 Nordeste 5 Este 0 -- -- 96
2021-02-18 02:00:00 2.2 0 Calma 4 Oeste 0 -- -- 94
2021-02-18 01:00:00 3.1 0 Calma 3 Norte 0 -- -- 90
2021-02-18 00:00:00 4 0 Calma 5 Sudeste 0 -- -- 88
2021-02-17 23:00:00 6.5 0 Calma 5 Oeste 0 -- -- 83
2021-02-17 22:00:00 7.1 2 Nordeste 5 Oeste 0 -- -- 80
2021-02-17 21:00:00 7.8 0 Calma 5 Este 0 -- -- 75
2021-02-17 20:00:00 8.4 0 Calma 10 Sur 0 -- -- 72
2021-02-17 19:00:00 9.2 3 Este 19 Este 0 -- -- 63
2021-02-17 18:00:00 10.9 7 Sudoeste 15 Sur 0 -- -- 51
2021-02-17 17:00:00 12.5 9 Sudoeste 27 Sudoeste 0 -- -- 48
2021-02-17 16:00:00 13.5 9 Sur 32 Sudoeste 0 -- -- 44
2021-02-17 15:00:00 13.5 13 Sudoeste 27 Sudoeste 0 -- -- 41
2021-02-17 14:00:00 13 11 Sudoeste 30 Sudoeste 0 -- -- 43
2021-02-17 13:00:00 12 9 Sudoeste 18 Sudoeste 0 -- -- 45
2021-02-17 12:00:00 9.2 3 Sudeste 7 Noroeste 0 -- -- 59
2021-02-17 11:00:00 7.7 2 Sudeste 5 Nordeste 0 -- -- 63
2021-02-17 10:00:00 4.7 5 Este 9 Este 0 -- -- 80
2021-02-17 09:00:00 -0.9 0 Calma 5 Sudeste 0 -- -- 95
2021-02-17 08:00:00 -1.1 3 Este 9 Sudoeste 0 -- -- 95
2021-02-17 07:00:00 -0.6 3 Este 8 Sudeste 0 -- -- 96
2021-02-17 06:00:00 -0.5 0 Calma 6 Sudeste 0 -- -- 94
2021-02-17 05:00:00 0.5 2 Este 5 Sudeste 0 -- -- 92
2021-02-17 04:00:00 1.2 2 Este 6 Sudoeste 0 -- -- 89
2021-02-17 03:00:00 1.3 0 Calma 11 Oeste 0 -- -- 88
2021-02-17 02:00:00 1.4 2 Nordeste 5 Este 0 -- -- 89
2021-02-17 01:00:00 1.8 2 Sudeste 8 Sudoeste 0 -- -- 84
2021-02-17 00:00:00 3.3 5 Nordeste 8 Norte 0 -- -- 77
2021-02-16 23:00:00 4.3 4 Nordeste 8 Norte 0 -- -- 74
2021-02-16 22:00:00 5.3 4 Este 8 Este 0 -- -- 68
2021-02-16 21:00:00 6.1 5 Este 7 Sudeste 0 -- -- 65
2021-02-16 20:00:00 8 3 Este 8 Norte 0 -- -- 55
2021-02-16 19:00:00 10.9 3 Norte 19 Sur 0 -- -- 43
2021-02-16 18:00:00 14.2 7 Sur 25 Sur 0 -- -- 31
2021-02-16 17:00:00 16 12 Sudeste 40 Sudoeste 0 -- -- 27
2021-02-16 16:00:00 17.6 15 Sur 33 Sudoeste 0 -- -- 28
2021-02-16 15:00:00 18 9 Sur 38 Sur 0 -- -- 28
2021-02-16 14:00:00 16 4 Norte 15 Este 0 -- -- 36
2021-02-16 13:00:00 10.1 8 Sudoeste 14 Sudoeste 0 -- -- 53
2021-02-16 12:00:00 7 3 Sudoeste 10 Oeste 0 -- -- 53
2021-02-16 11:00:00 2.5 5 Sur 14 Oeste 0 -- -- 88
2021-02-16 10:00:00 -0.2 3 Sudeste 7 Sudoeste 0 -- -- 98
2021-02-16 09:00:00 -0.7 2 Sudeste 6 Este 0 -- -- 98
2021-02-16 08:00:00 -2.1 0 Calma 4 Este 0 -- -- 99
2021-02-16 07:00:00 -2.4 2 Este 5 Sudeste 0 -- -- 99
2021-02-16 06:00:00 -2.6 0 Calma 4 Sudeste 0 -- -- 98
2021-02-16 05:00:00 -1.2 2 Este 4 Este 0 -- -- 98
2021-02-16 04:00:00 -1.3 0 Calma 4 Este 0 -- -- 97
2021-02-16 03:00:00 -1.1 2 Nordeste 6 Sudoeste 0 -- -- 97
2021-02-16 02:00:00 -0.5 0 Calma 8 Sudoeste 0 -- -- 97
2021-02-16 01:00:00 0.6 0 Calma 4 Noroeste 0 -- -- 98
2021-02-16 00:00:00 1 2 Sudeste 3 Sudeste 0 -- -- 95
2021-02-15 23:00:00 2.4 0 Calma 7 Nordeste 0 -- -- 91
2021-02-15 22:00:00 3.6 3 Sudoeste 5 Sudoeste 0 -- -- 90
2021-02-15 21:00:00 3.3 0 Calma 3 Sudeste 0 -- -- 92
2021-02-15 20:00:00 3 0 Calma 4 Sudoeste 0 -- -- 90
2021-02-15 19:00:00 4.6 0 Calma 11 Sudeste 0 -- -- 87
2021-02-15 18:00:00 7.3 4 Sur 18 Sudoeste 0 -- -- 76
2021-02-15 17:00:00 10.2 12 Sudoeste 19 Sudoeste 0 -- -- 64
2021-02-15 16:00:00 11.3 11 Sudoeste 19 Sudoeste 0 -- -- 61
2021-02-15 15:00:00 10.5 13 Sudoeste 19 Sudoeste 0 -- -- 62
2021-02-15 14:00:00 9.2 10 Sudoeste 16 Sudoeste 0 -- -- 66
2021-02-15 13:00:00 8.3 12 Sudoeste 15 Sudoeste 0 -- -- 66
2021-02-15 12:00:00 7.8 7 Oeste 14 Sudoeste 0 -- -- 66
2021-02-15 11:00:00 6 2 Sudeste 6 Este 0 -- -- 69
2021-02-15 10:00:00 3.2 0 Calma 4 Este 0 -- -- 87
2021-02-15 09:00:00 -0.2 2 Sudoeste 4 Sudeste 0 -- -- 95
2021-02-15 08:00:00 0.5 0 Calma 5 Este 0 -- -- 96
2021-02-15 07:00:00 2.5 0 Calma 3 Sudoeste 0 -- -- 95
2021-02-15 06:00:00 3.1 2 Sudoeste 5 Sudoeste 0 -- -- 95
2021-02-15 05:00:00 3.2 2 Sudoeste 5 Sudoeste 0 -- -- 94
2021-02-15 04:00:00 3.3 0 Calma 4 Sudoeste 0 -- -- 94
2021-02-15 03:00:00 3.6 3 Sudoeste 6 Oeste 0 -- -- 94
2021-02-15 02:00:00 3.9 0 Calma 9 Sudoeste 0 -- -- 91
2021-02-15 01:00:00 3.9 4 Sudoeste 8 Sudoeste 0 -- -- 91
2021-02-15 00:00:00 4.4 4 Sudoeste 8 Sudoeste 0 -- -- 91
2021-02-14 23:00:00 4.5 2 Sudoeste 6 Oeste 0 -- -- 90
2021-02-14 22:00:00 4.7 2 Sudoeste 7 Sudoeste 0 -- -- 89
2021-02-14 21:00:00 5.1 3 Sudoeste 9 Sudoeste 0 -- -- 85
2021-02-14 20:00:00 5 0 Calma 6 Este 0 -- -- 84
2021-02-14 19:00:00 4.8 3 Sur 13 Sudoeste 0 -- -- 81
2021-02-14 18:00:00 6.9 8 Sudoeste 20 Oeste 0 -- -- 72
2021-02-14 17:00:00 9.3 14 Oeste 27 Sudoeste 0 -- -- 60
2021-02-14 16:00:00 10.1 17 Oeste 26 Sudoeste 0 -- -- 55
2021-02-14 15:00:00 10.8 11 Oeste 22 Sudoeste 0 -- -- 52
2021-02-14 14:00:00 9.2 14 Sudoeste 23 Oeste 0 -- -- 54
2021-02-14 13:00:00 8.6 13 Oeste 19 Oeste 0 -- -- 56
2021-02-14 12:00:00 8 3 Sudeste 10 Sudoeste 0 -- -- 49
2021-02-14 11:00:00 5.5 0 Calma 5 Este 0 -- -- 51
2021-02-14 10:00:00 0 2 Este 4 Nordeste 0 -- -- 78
2021-02-14 09:00:00 -3.5 0 Calma 4 Este 0 -- -- 90
2021-02-14 08:00:00 -4.3 0 Calma 4 Sudeste 0 -- -- 91
2021-02-14 07:00:00 -3.9 2 Norte 8 Sudoeste 0 -- -- 91
2021-02-14 06:00:00 -3.8 0 Calma 5 Sudeste 0 -- -- 90
2021-02-14 05:00:00 -2.8 2 Sudoeste 5 Este 0 -- -- 85
2021-02-14 04:00:00 -3 0 Calma 6 Sudeste 0 -- -- 87
2021-02-14 03:00:00 -2.7 0 Calma 5 Este 0 -- -- 85
2021-02-14 02:00:00 -1.7 2 Este 5 Sudeste 0 -- -- 82
2021-02-14 01:00:00 -1.5 0 Calma 6 Oeste 0 -- -- 83
2021-02-14 00:00:00 -0.4 2 Nordeste 6 Nordeste 0 -- -- 78
2021-02-13 23:00:00 1.2 0 Calma 15 Norte 0 -- -- 73
2021-02-13 22:00:00 6.7 12 Norte 27 Nordeste 0 -- -- 51
2021-02-13 21:00:00 7.8 13 Nordeste 38 Este 0 -- -- 45
2021-02-13 20:00:00 8.4 9 Nordeste 37 Este 0 -- -- 44
2021-02-13 19:00:00 9 21 Nordeste 40 Este 0 -- -- 43
2021-02-13 18:00:00 10.2 13 Nordeste 33 Nordeste 0 -- -- 32
2021-02-13 17:00:00 11.1 18 Nordeste 35 Este 0 -- -- 32
2021-02-13 16:00:00 14.2 3 Sudoeste 16 Oeste 0 -- -- 29
2021-02-13 15:00:00 14.7 4 Oeste 16 Oeste 0 -- -- 34
2021-02-13 14:00:00 12 11 Sudoeste 18 Oeste 0 -- -- 42
2021-02-13 13:00:00 11.2 6 Sudoeste 18 Sudoeste 0 -- -- 38
2021-02-13 08:00:00 -- -- -- -- -- -- -- -- --
2021-02-13 07:00:00 4.6 6 Sudoeste 28 Este 0 -- -- 64
2021-02-13 06:00:00 7.1 11 Este 49 Nordeste 0 -- -- 53
2021-02-13 05:00:00 7.7 16 Nordeste 41 Este 0 -- -- 52
2021-02-13 04:00:00 7.7 17 Nordeste 36 Este 0 -- -- 53
2021-02-13 03:00:00 7.3 21 Nordeste 54 Este 0 -- -- 55
2021-02-13 02:00:00 7.2 26 Este 64 Este 0 -- -- 53
2021-02-13 01:00:00 7.4 26 Este 63 Nordeste 0 -- -- 54
2021-02-13 00:00:00 8 29 Este 74 Nordeste 0 -- -- 53
2021-02-12 23:00:00 7.3 28 Este 74 Nordeste 0 -- -- 59
2021-02-12 22:00:00 7.8 30 Nordeste 68 Este 0 -- -- 61
2021-02-12 21:00:00 8.5 36 Nordeste 76 Este 0 -- -- 60
2021-02-12 20:00:00 4.3 3 Sur 12 Sudoeste 0 -- -- 97
2021-02-12 19:00:00 5.4 4 Sudoeste 15 Sudoeste 0 -- -- 97
2021-02-12 18:00:00 6.4 2 Sudoeste 15 Sudoeste 0 -- -- 92
2021-02-12 17:00:00 6.6 6 Sudoeste 14 Noroeste 0 -- -- 90
2021-02-12 16:00:00 6.3 5 Sur 14 Sudoeste 0.4 -- -- 93
2021-02-12 15:00:00 5.2 4 Sudeste 6 Sudeste 0.6 -- -- 97
2021-02-12 14:00:00 6.2 0 Calma 8 Oeste 0.4 -- -- 96
2021-02-12 13:00:00 6 0 Calma 5 Oeste 0.2 -- -- 90
2021-02-12 12:00:00 4.9 3 Sudeste 4 Sur 0.4 -- -- 91
2021-02-12 11:00:00 4 0 Calma 7 Este 0 -- -- 87
2021-02-12 10:00:00 2.4 4 Sudoeste 8 Oeste 0 -- -- 92
2021-02-12 09:00:00 1.6 2 Oeste 6 Oeste 0 -- -- 95
2021-02-12 08:00:00 0.6 3 Sudeste 8 Sudoeste 0 -- -- 96
2021-02-12 07:00:00 0.4 2 Sudoeste 6 Sudeste 0 -- -- 96
2021-02-12 06:00:00 0.1 2 Sudoeste 6 Este 0 -- -- 97
2021-02-12 05:00:00 -0.7 3 Noroeste 8 Oeste 0 -- -- 97
2021-02-12 04:00:00 -0.7 2 Nordeste 8 Oeste 0 -- -- 97
2021-02-12 03:00:00 -1.1 2 Nordeste 8 Sudoeste 0 -- -- 97
2021-02-12 02:00:00 -0.5 2 Norte 7 Nordeste 0 -- -- 95
2021-02-12 01:00:00 -1.2 3 Este 9 Sudoeste 0 -- -- 96
2021-02-12 00:00:00 -0.9 3 Nordeste 8 Este 0 -- -- 95
2021-02-11 23:00:00 -0.9 0 Calma 6 Sudoeste 0 -- -- 93
2021-02-11 22:00:00 -0.4 4 Este 6 Este 0 -- -- 94
2021-02-11 21:00:00 0.3 0 Calma 6 Sudeste 0 -- -- 91
2021-02-11 20:00:00 1.9 2 Nordeste 12 Oeste 0 -- -- 85
2021-02-11 19:00:00 2.9 3 Sudeste 12 Norte 0 -- -- 80
2021-02-11 18:00:00 5.3 3 Nordeste 11 Norte 0 -- -- 72
2021-02-11 17:00:00 10.4 6 Norte 9 Norte 0 -- -- 52
2021-02-11 16:00:00 13.8 0 Calma 10 Oeste 0 -- -- 37
2021-02-11 15:00:00 12 4 Sudoeste 12 Sudoeste 0 -- -- 35
2021-02-11 14:00:00 9.2 6 Sudoeste 9 Sudoeste 0 -- -- 41
2021-02-11 13:00:00 6.6 3 Sudoeste 6 Sudoeste 0 -- -- 50
2021-02-11 12:00:00 6.9 2 Nordeste 5 Este 0 -- -- 55
2021-02-11 11:00:00 2 3 Noroeste 16 Noroeste 0 -- -- 75
2021-02-11 10:00:00 -3.4 4 Este 7 Sudeste 0 -- -- 97
2021-02-11 09:00:00 -5.9 2 Nordeste 8 Sudeste 0 -- -- 97
2021-02-11 08:00:00 -6.3 3 Nordeste 9 Sudeste 0 -- -- 97
2021-02-11 07:00:00 -6.2 0 Calma 8 Nordeste 0 -- -- 96
2021-02-11 06:00:00 -5.9 5 Sudoeste 8 Sudoeste 0 -- -- 96
2021-02-11 05:00:00 -5.6 2 Nordeste 6 Sudeste 0 -- -- 98
2021-02-11 04:00:00 -5.7 4 Nordeste 7 Sudeste 0 -- -- 95
2021-02-11 03:00:00 -4.8 2 Nordeste 10 Oeste 0 -- -- 98
2021-02-11 02:00:00 -4.4 0 Calma 8 Este 0 -- -- 98
2021-02-11 01:00:00 -4.1 2 Sudoeste 10 Este 0 -- -- 97
2021-02-11 00:00:00 -4.2 2 Este 6 Sudeste 0 -- -- 97
2021-02-10 23:00:00 -2.8 6 Oeste 10 Oeste 0 -- -- 97
2021-02-10 22:00:00 -2.3 0 Calma 10 Sudoeste 0 -- -- 96
2021-02-10 21:00:00 -0.8 7 Oeste 13 Sudoeste 0 -- -- 96
2021-02-10 20:00:00 -0.7 4 Sur 10 Sudoeste 0 -- -- 93
2021-02-10 19:00:00 1.1 4 Nordeste 10 Nordeste 0 -- -- 90
2021-02-10 18:00:00 3.7 0 Calma 14 Sudoeste 0 -- -- 76
2021-02-10 17:00:00 8.7 3 Noroeste 20 Norte 0 -- -- 51
2021-02-10 16:00:00 6.9 10 Norte 21 Norte 0 -- -- 59
2021-02-10 15:00:00 7.9 8 Nordeste 23 Este 0 -- -- 52
2021-02-10 14:00:00 5.4 3 Sudoeste 18 Oeste 0 -- -- 77
2021-02-10 13:00:00 5.6 2 Oeste 13 Sudoeste 0 -- -- 75
2021-02-10 12:00:00 4.2 6 Sudoeste 10 Oeste 0 -- -- 81
2021-02-10 11:00:00 2.3 5 Sudoeste 7 Sudoeste 0 -- -- 91
2021-02-10 10:00:00 0 3 Norte 5 Norte 0 -- -- 98
2021-02-10 09:00:00 -0.4 2 Norte 8 Norte 0 -- -- 100
2021-02-10 08:00:00 -0.8 2 Norte 4 Norte 0 -- -- 100
2021-02-10 07:00:00 -1.2 2 Norte 7 Norte 0 -- -- 100
2021-02-10 06:00:00 -0.9 3 Norte 6 Norte 0 -- -- 100
2021-02-10 05:00:00 -0.8 0 Calma 5 Norte 0 -- -- 100
2021-02-10 04:00:00 -0.1 0 Calma 5 Norte 0.2 -- -- 100
2021-02-10 03:00:00 -0.2 3 Norte 5 Norte 0 -- -- 100
2021-02-10 02:00:00 -0.4 0 Calma 6 Norte 0.2 -- -- 100
2021-02-10 01:00:00 -0.5 0 Calma 5 Norte 0 -- -- 100
2021-02-10 00:00:00 -0.8 0 Calma 5 Norte 0 -- -- 99
2021-02-09 23:00:00 -0.6 0 Calma 10 Norte 0 -- -- 99
2021-02-09 22:00:00 -0.6 7 Norte 10 Norte 0 -- -- 99
2021-02-09 21:00:00 0.1 2 Norte 5 Norte 0 -- -- 99
2021-02-09 20:00:00 0 2 Norte 5 Norte 1.4 -- -- 99
2021-02-09 19:00:00 0 0 Calma 2 Norte 4 -- -- 99
2021-02-09 18:00:00 0 0 Calma 0 Calma 4.6 -- -- 99
2021-02-09 17:00:00 0.2 0 Calma 0 Calma 3 -- -- 98
2021-02-09 16:00:00 0.3 0 Calma 4 Sudeste 2.6 -- -- 98
2021-02-09 15:00:00 0.4 0 Calma 10 Sur 1.4 -- -- 98
2021-02-09 14:00:00 0.4 0 Calma 4 Sudeste 0.8 -- -- 98
2021-02-09 13:00:00 0.3 0 Calma 6 Oeste 0.8 -- -- 97
2021-02-09 12:00:00 0.6 0 Calma 6 Oeste 0.2 -- -- 95
2021-02-09 11:00:00 0 2 Oeste 8 Oeste 0 -- -- 94
2021-02-09 10:00:00 -0.6 2 Norte 5 Oeste 0 -- -- 95
2021-02-09 09:00:00 -1.7 0 Calma 8 Sudoeste 0 -- -- 96
2021-02-09 08:00:00 -2.4 3 Nordeste 9 Este 0 -- -- 96
2021-02-09 07:00:00 -3 4 Sudoeste 10 Oeste 0 -- -- 97
2021-02-09 06:00:00 -3.5 3 Este 5 Sudeste 0 -- -- 97
2021-02-09 05:00:00 -3 3 Nordeste 17 Sudoeste 0 -- -- 96
2021-02-09 04:00:00 -3.3 3 Este 8 Oeste 0 -- -- 98
2021-02-09 03:00:00 -2.9 0 Calma 6 Sudeste 0 -- -- 98
2021-02-09 02:00:00 -2.5 4 Sudoeste 11 Sudoeste 0 -- -- 98
2021-02-09 01:00:00 -2.2 0 Calma 6 Sudeste 0 -- -- 99
2021-02-09 00:00:00 -1.7 2 Norte 6 Sudeste 0 -- -- 99
2021-02-08 23:00:00 -1.6 0 Calma 6 Noroeste 0 -- -- 99
2021-02-08 22:00:00 -0.6 0 Calma 5 Nordeste 0 -- -- 98
2021-02-08 21:00:00 0.5 4 Sudeste 8 Oeste 0 -- -- 98
2021-02-08 20:00:00 1.3 2 Nordeste 5 Nordeste 0 -- -- 97
2021-02-08 19:00:00 3.4 0 Calma 9 Sudoeste 0.2 -- -- 93
2021-02-08 18:00:00 4.1 0 Calma 4 Nordeste 0 -- -- 87
2021-02-08 17:00:00 4 0 Calma 6 Oeste 0 -- -- 86
2021-02-08 16:00:00 3.8 2 Noroeste 5 Noroeste 0 -- -- 89
2021-02-08 15:00:00 3.4 2 Sur 10 Sudoeste 0.2 -- -- 91
2021-02-08 14:00:00 2.9 6 Oeste 8 Oeste 0 -- -- 93
2021-02-08 13:00:00 3 2 Sudoeste 4 Sudoeste 0.2 -- -- 88
2021-02-08 12:00:00 2.4 3 Oeste 9 Sudoeste 0 -- -- 90
2021-02-08 11:00:00 1.6 4 Oeste 10 Sudoeste 0 -- -- 93
2021-02-08 10:00:00 0.9 5 Oeste 6 Oeste 0 -- -- 94
2021-02-08 09:00:00 -0.3 0 Calma 5 Sudoeste 0 -- -- 96
2021-02-08 08:00:00 -0.6 2 Oeste 4 Sudeste 0 -- -- 96
2021-02-08 07:00:00 -0.7 0 Calma 5 Sudoeste 0 -- -- 95
2021-02-08 06:00:00 -0.7 3 Sudeste 6 Oeste 0 -- -- 94
2021-02-08 05:00:00 -1.1 3 Sudeste 8 Noroeste 0 -- -- 94
2021-02-08 04:00:00 -1.5 5 Oeste 7 Sudoeste 0 -- -- 94
2021-02-08 03:00:00 -0.5 3 Nordeste 6 Sudoeste 0 -- -- 92
2021-02-08 02:00:00 -0.8 2 Norte 10 Sudoeste 0 -- -- 92
2021-02-08 01:00:00 -0.8 0 Calma 4 Este 0 -- -- 92
2021-02-08 00:00:00 -0.4 0 Calma 5 Sudoeste 0 -- -- 90
2021-02-07 23:00:00 0.6 0 Calma 4 Sudeste 0 -- -- 86
2021-02-07 22:00:00 1.8 0 Calma 5 Sudoeste 0 -- -- 81
2021-02-07 21:00:00 3.3 2 Sur 3 Sur 0 -- -- 73
2021-02-07 20:00:00 3.8 0 Calma 7 Sudoeste 0 -- -- 69
2021-02-07 19:00:00 4.5 5 Sudoeste 15 Sudoeste 0 -- -- 65
2021-02-07 18:00:00 6.2 3 Sudoeste 17 Sudeste 0 -- -- 54
2021-02-07 17:00:00 7.6 7 Sudoeste 15 Sudoeste 0 -- -- 45
2021-02-07 16:00:00 7.5 5 Sudoeste 16 Sudoeste 0 -- -- 35
2021-02-07 15:00:00 9.5 9 Norte 18 Nordeste 0 -- -- 30
2021-02-07 14:00:00 8.5 10 Norte 21 Norte 0 -- -- 30
2021-02-07 13:00:00 7.2 14 Nordeste 37 Este 0 -- -- 27
2021-02-07 12:00:00 6.9 17 Nordeste 35 Este 0 -- -- 25
2021-02-07 11:00:00 5.5 23 Nordeste 45 Este 0 -- -- 20
2021-02-07 10:00:00 4.3 21 Nordeste 37 Este 0 -- -- 23
2021-02-07 09:00:00 3 19 Nordeste 48 Este 0 -- -- 42
2021-02-07 08:00:00 3.4 21 Nordeste 45 Nordeste 0 -- -- 55
2021-02-07 07:00:00 3.6 18 Nordeste 44 Nordeste 0 -- -- 56
2021-02-07 06:00:00 4.1 11 Nordeste 31 Nordeste 0 -- -- 58
2021-02-07 05:00:00 3.8 17 Nordeste 31 Este 0 -- -- 64
2021-02-07 04:00:00 4 11 Nordeste 28 Nordeste 0 -- -- 69
2021-02-07 03:00:00 2.9 6 Sudoeste 14 Sudoeste 0 -- -- 99
2021-02-07 02:00:00 2.9 2 Sudoeste 9 Sudoeste 0 -- -- 99
2021-02-07 01:00:00 2.7 2 Este 4 Sudeste 0 -- -- 99
2021-02-07 00:00:00 3.2 2 Oeste 5 Sudoeste 0 -- -- 98
2021-02-06 23:00:00 3.2 0 Calma 5 Sudoeste 0 -- -- 98
2021-02-06 22:00:00 3.1 0 Calma 5 Oeste 0 -- -- 97
2021-02-06 21:00:00 4.1 0 Calma 9 Nordeste 0.2 -- -- 95
2021-02-06 20:00:00 4.8 3 Sudoeste 10 Sudoeste 2.6 -- -- 96
2021-02-06 19:00:00 5.2 0 Calma 5 Oeste 0 -- -- 94
2021-02-06 18:00:00 5.8 5 Oeste 6 Oeste 0 -- -- 91
2021-02-06 17:00:00 6.6 0 Calma 16 Oeste 0.2 -- -- 85
2021-02-06 16:00:00 8.7 9 Sudoeste 24 Sudoeste 0 -- -- 67
2021-02-06 15:00:00 9.8 13 Sudoeste 26 Sudoeste 0 -- -- 63
2021-02-06 14:00:00 9.3 15 Sudoeste 28 Sudoeste 0 -- -- 70
2021-02-06 13:00:00 8.7 12 Sudoeste 20 Sudoeste 0 -- -- 73
2021-02-06 12:00:00 7.7 4 Sudeste 22 Sudoeste 1.6 -- -- 82
2021-02-06 11:00:00 7.4 5 Sur 21 Oeste 0 -- -- 80
2021-02-06 10:00:00 6.9 8 Sudoeste 23 Sudoeste 0 -- -- 83
2021-02-06 09:00:00 6.5 12 Sudoeste 33 Sudoeste 0.2 -- -- 84
2021-02-06 08:00:00 5.3 4 Nordeste 9 Oeste 0 -- -- 94
2021-02-06 07:00:00 5 2 Este 10 Noroeste 0 -- -- 95
2021-02-06 06:00:00 5.5 5 Este 10 Este 0.2 -- -- 92
2021-02-06 05:00:00 5.7 6 Sudoeste 9 Este 0.4 -- -- 91
2021-02-06 04:00:00 6.9 4 Norte 10 Norte 0.2 -- -- 80
2021-02-06 03:00:00 7.5 5 Este 12 Sudoeste 0 -- -- 75
2021-02-06 02:00:00 6.6 6 Oeste 13 Sudoeste 0 -- -- 71
2021-02-06 01:00:00 6 4 Este 6 Norte 0 -- -- 73
2021-02-06 00:00:00 6.3 4 Sudeste 11 Oeste 0 -- -- 72
2021-02-05 23:00:00 5.5 3 Norte 6 Nordeste 0 -- -- 79
2021-02-05 22:00:00 7.3 3 Sudeste 7 Este 0 -- -- 72
2021-02-05 21:00:00 7.4 3 Nordeste 13 Sudoeste 0 -- -- 70
2021-02-05 20:00:00 9.6 4 Sudoeste 12 Sudeste 0 -- -- 61
2021-02-05 19:00:00 10.4 6 Sudoeste 15 Sudoeste 0 -- -- 56
2021-02-05 18:00:00 12.5 5 Sudoeste 20 Sudoeste 0 -- -- 48
2021-02-05 17:00:00 13.9 7 Sudoeste 22 Sudoeste 0 -- -- 40
2021-02-05 16:00:00 14.7 5 Sudeste 27 Oeste 0 -- -- 40
2021-02-05 15:00:00 15 4 Sudoeste 24 Oeste 0 -- -- 42
2021-02-05 14:00:00 14.6 11 Sudoeste 24 Sudoeste 0 -- -- 42
2021-02-05 13:00:00 15.2 8 Oeste 17 Oeste 0 -- -- 42
2021-02-05 12:00:00 10 3 Nordeste 8 Sudeste 0 -- -- 72
2021-02-05 11:00:00 7.1 2 Sudeste 15 Este 0 -- -- 84
2021-02-05 10:00:00 5.5 3 Este 12 Este 0 -- -- 90
2021-02-05 09:00:00 4 2 Sudeste 7 Sudeste 0 -- -- 95
2021-02-05 08:00:00 2.6 0 Calma 5 Sudeste 0 -- -- 96
2021-02-05 07:00:00 3.2 2 Este 4 Este 0 -- -- 96
2021-02-05 06:00:00 4.5 3 Norte 12 Noroeste 0 -- -- 93
2021-02-05 05:00:00 5.2 5 Norte 12 Sudoeste 0 -- -- 95
2021-02-05 04:00:00 5.5 0 Calma 8 Este 0.2 -- -- 95
2021-02-05 03:00:00 5.5 3 Este 8 Sudoeste 0 -- -- 93
2021-02-05 02:00:00 5.7 4 Este 13 Este 0 -- -- 89
2021-02-05 01:00:00 5.5 4 Noroeste 13 Sudoeste 0 -- -- 84
2021-02-05 00:00:00 4.9 0 Calma 5 Nordeste 0 -- -- 88
2021-02-04 23:00:00 4.6 0 Calma 5 Sudeste 0 -- -- 88
2021-02-04 22:00:00 4.4 0 Calma 6 Norte 0 -- -- 88
2021-02-04 21:00:00 4.9 3 Este 5 Sudeste 0 -- -- 85
2021-02-04 20:00:00 5.6 2 Este 5 Sudeste 0 -- -- 84
2021-02-04 19:00:00 7.4 0 Calma 6 Sudeste 0 -- -- 78
2021-02-04 18:00:00 10.3 3 Sur 11 Sur 0 -- -- 65
2021-02-04 17:00:00 12.6 5 Sudoeste 12 Sudoeste 0 -- -- 56
2021-02-04 16:00:00 13.4 6 Sudoeste 14 Sudoeste 0 -- -- 52
2021-02-04 15:00:00 13.2 6 Sudoeste 20 Sudoeste 0 -- -- 58
2021-02-04 14:00:00 13.1 5 Oeste 10 Oeste 0 -- -- 58
2021-02-04 13:00:00 11.2 2 Sudoeste 8 Oeste 0 -- -- 66
2021-02-04 12:00:00 9.7 6 Oeste 9 Oeste 0 -- -- 72
2021-02-04 11:00:00 9 0 Calma 6 Sudeste 0 -- -- 74
2021-02-04 10:00:00 6.5 0 Calma 4 Norte 0 -- -- 87
2021-02-04 09:00:00 4.6 3 Sudeste 7 Oeste 0 -- -- 94
2021-02-04 08:00:00 3.8 5 Oeste 8 Noroeste 0 -- -- 95
2021-02-04 07:00:00 3.7 2 Sudoeste 7 Sudoeste 0 -- -- 94
2021-02-04 06:00:00 3.8 3 Sudoeste 8 Oeste 0 -- -- 95
2021-02-04 05:00:00 2.6 0 Calma 4 Este 0 -- -- 97
2021-02-04 04:00:00 2.6 0 Calma 5 Sudeste 0 -- -- 96
2021-02-04 03:00:00 3.3 0 Calma 4 Sudoeste 0 -- -- 96
2021-02-04 02:00:00 4.3 3 Este 9 Sudoeste 0 -- -- 92
2021-02-04 01:00:00 5.2 0 Calma 4 Noroeste 0 -- -- 90
2021-02-04 00:00:00 6.4 0 Calma 4 Noroeste 0 -- -- 88
2021-02-03 23:00:00 7.2 0 Calma 5 Sudeste 0 -- -- 84
2021-02-03 22:00:00 7 0 Calma 4 Norte 0 -- -- 84
2021-02-03 21:00:00 6.3 2 Nordeste 6 Sur 0 -- -- 84
2021-02-03 20:00:00 5.3 0 Calma 4 Sudoeste 0 -- -- 84
2021-02-03 19:00:00 8 3 Sudeste 15 Oeste 0 -- -- 74
2021-02-03 18:00:00 11.1 7 Sudoeste 27 Sudoeste 0 -- -- 62
2021-02-03 17:00:00 12 7 Sur 26 Sur 0 -- -- 51
2021-02-03 16:00:00 13.2 5 Sur 25 Sudoeste 0 -- -- 48
2021-02-03 15:00:00 13.5 7 Sur 23 Sudoeste 0 -- -- 50
2021-02-03 14:00:00 13.5 16 Oeste 25 Sudoeste 0 -- -- 56
2021-02-03 13:00:00 14.1 12 Sudoeste 24 Sudoeste 0 -- -- 57
2021-02-03 12:00:00 10.7 4 Sudoeste 9 Sudoeste 0 -- -- 68
2021-02-03 11:00:00 6.9 2 Sudeste 6 Este 0 -- -- 82
2021-02-03 10:00:00 2.1 2 Sudeste 6 Oeste 0 -- -- 100
2021-02-03 09:00:00 -0.7 3 Noroeste 8 Oeste 0 -- -- 100
2021-02-03 08:00:00 -0.9 2 Nordeste 7 Oeste 0 -- -- 100
2021-02-03 07:00:00 -1.1 2 Oeste 6 Este 0 -- -- 99
2021-02-03 06:00:00 -0.8 0 Calma 6 Noroeste 0 -- -- 99
2021-02-03 05:00:00 -1 2 Sudeste 7 Sudeste 0 -- -- 99
2021-02-03 04:00:00 -0.1 2 Sudoeste 8 Oeste 0 -- -- 98
2021-02-03 03:00:00 0.4 4 Nordeste 5 Norte 0 -- -- 98
2021-02-03 02:00:00 1 2 Este 4 Este 0 -- -- 98
2021-02-03 01:00:00 2 0 Calma 6 Sudeste 0 -- -- 96
2021-02-03 00:00:00 4.5 0 Calma 5 Este 0 -- -- 94
2021-02-02 23:00:00 3.4 0 Calma 4 Este 0 -- -- 97
2021-02-02 22:00:00 2.8 0 Calma 4 Oeste 0 -- -- 95
2021-02-02 21:00:00 3.8 0 Calma 5 Oeste 0 -- -- 93
2021-02-02 20:00:00 5.7 2 Este 5 Sudeste 0 -- -- 88
2021-02-02 19:00:00 6.5 0 Calma 6 Sudoeste 0 -- -- 85
2021-02-02 18:00:00 10.5 4 Sur 14 Sudoeste 0 -- -- 71
2021-02-02 17:00:00 13.3 7 Sudoeste 18 Sudoeste 0 -- -- 60
2021-02-02 16:00:00 14.2 10 Sudoeste 19 Sudoeste 0 -- -- 56
2021-02-02 15:00:00 14.3 12 Sudoeste 17 Sudoeste 0 -- -- 55
2021-02-02 14:00:00 12 2 Sur 13 Sudoeste 0 -- -- 58
2021-02-02 13:00:00 10.7 3 Sudoeste 8 Sudoeste 0 -- -- 60
2021-02-02 12:00:00 9 0 Calma 6 Sudoeste 0 -- -- 65
2021-02-02 11:00:00 6.5 0 Calma 6 Este 0 -- -- 78
2021-02-02 10:00:00 1.2 2 Nordeste 8 Oeste 0 -- -- 99
2021-02-02 09:00:00 -0.9 2 Este 7 Sudeste 0 -- -- 98
2021-02-02 08:00:00 -0.3 0 Calma 12 Sudoeste 0 -- -- 98
2021-02-02 07:00:00 -0.5 4 Este 8 Nordeste 0 -- -- 98
2021-02-02 06:00:00 0.1 3 Este 6 Este 0 -- -- 97
2021-02-02 05:00:00 0.7 4 Sudoeste 8 Este 0 -- -- 95
2021-02-02 04:00:00 1.4 3 Noroeste 13 Sudoeste 0 -- -- 95
2021-02-02 03:00:00 2.5 4 Nordeste 10 Este 0 -- -- 92
2021-02-02 02:00:00 3.2 3 Sur 9 Oeste 0 -- -- 89
2021-02-02 01:00:00 3.7 3 Este 10 Sudeste 0 -- -- 88
2021-02-02 00:00:00 4.9 4 Noroeste 8 Oeste 0 -- -- 87
2021-02-01 23:00:00 6.7 4 Noroeste 19 Sudoeste 0 -- -- 76
2021-02-01 22:00:00 7.9 9 Sur 23 Nordeste 0 -- -- 67
2021-02-01 21:00:00 10.9 12 Nordeste 47 Este 0 -- -- 56
2021-02-01 20:00:00 11.4 24 Nordeste 53 Este 0 -- -- 51
2021-02-01 19:00:00 11.5 32 Este 59 Este 0 -- -- 51
2021-02-01 18:00:00 11.8 28 Este 68 Nordeste 0 -- -- 48
2021-02-01 17:00:00 12.7 35 Este 77 Este 0 -- -- 44
2021-02-01 16:00:00 12.9 38 Este 68 Este 0 -- -- 41
2021-02-01 15:00:00 12.6 29 Este 69 Nordeste 0 -- -- 41
2021-02-01 14:00:00 12 31 Este 75 Nordeste 0 -- -- 41
2021-02-01 13:00:00 11.5 31 Nordeste 66 Este 0.2 -- -- 39
2021-02-01 12:00:00 11.7 15 Nordeste 35 Nordeste 0 -- -- 42
2021-02-01 11:00:00 8.4 3 Este 14 Sudoeste 0 -- -- 77
2021-02-01 10:00:00 4.3 3 Nordeste 15 Oeste 0 -- -- 99
2021-02-01 09:00:00 2.4 6 Sur 21 Este 0 -- -- 100
2021-02-01 08:00:00 1.7 5 Oeste 10 Sudoeste 0 -- -- 99
2021-02-01 07:00:00 1.5 4 Este 9 Sudoeste 0 -- -- 99
2021-02-01 06:00:00 1.8 4 Noroeste 10 Sudoeste 0 -- -- 99
2021-02-01 05:00:00 2 2 Este 9 Oeste 0 -- -- 99
2021-02-01 04:00:00 2.4 3 Sur 8 Este 0 -- -- 98
2021-02-01 03:00:00 3.2 5 Sudoeste 12 Sudoeste 0 -- -- 98
2021-02-01 02:00:00 3.3 0 Calma 10 Oeste 1.2 -- -- 98
2021-02-01 01:00:00 3.4 4 Este 13 Sudoeste 1.2 -- -- 97
2021-02-01 00:00:00 3.7 4 Sudoeste 12 Sudeste 1.4 -- -- 95
2021-01-31 23:00:00 3 6 Sudoeste 12 Sudoeste 0 -- -- 94
2021-01-31 22:00:00 1.9 4 Sur 13 Oeste 0 -- -- 94
2021-01-31 21:00:00 1.5 2 Sudoeste 8 Sur 0 -- -- 94
2021-01-31 20:00:00 2.9 0 Calma 8 Sudeste 0 -- -- 89
2021-01-31 19:00:00 4.7 2 Este 5 Sudeste 0 -- -- 83
2021-01-31 18:00:00 8.6 6 Sur 17 Sudoeste 0 -- -- 69
2021-01-31 17:00:00 12.3 10 Sudoeste 26 Sudoeste 0 -- -- 55
2021-01-31 16:00:00 14.1 18 Oeste 30 Sudoeste 0 -- -- 48
2021-01-31 15:00:00 14.4 9 Oeste 33 Nordeste 0 -- -- 45
2021-01-31 14:00:00 13.3 21 Nordeste 64 Nordeste 0 -- -- 41
2021-01-31 13:00:00 12 26 Este 63 Este 0 -- -- 30
2021-01-31 12:00:00 11.6 21 Este 65 Este 0 -- -- 38
2021-01-31 11:00:00 10.7 19 Nordeste 78 Nordeste 0 -- -- 47
2021-01-31 10:00:00 8.3 33 Este 67 Este 0.2 -- -- 55
2021-01-31 09:00:00 2.6 7 Nordeste 22 Nordeste 0 -- -- 100
2021-01-31 08:00:00 0.3 2 Oeste 9 Sudoeste 0 -- -- 99
2021-01-31 07:00:00 0.4 2 Nordeste 7 Este 0 -- -- 99
2021-01-31 06:00:00 0.2 3 Noroeste 9 Oeste 0 -- -- 99
2021-01-31 05:00:00 0.2 3 Noroeste 8 Noroeste 0.2 -- -- 99
2021-01-31 04:00:00 0.2 0 Calma 12 Oeste 0 -- -- 98
2021-01-31 03:00:00 0.3 0 Calma 7 Sudoeste 0 -- -- 98
2021-01-31 02:00:00 0.4 2 Nordeste 8 Oeste 0.2 -- -- 97
2021-01-31 01:00:00 0.5 4 Sudoeste 6 Oeste 0 -- -- 95
2021-01-31 00:00:00 0.5 4 Norte 8 Sudoeste 0 -- -- 95
2021-01-30 23:00:00 0.3 2 Sudeste 7 Sudeste 0 -- -- 94
2021-01-30 22:00:00 0.9 4 Noroeste 9 Sudoeste 0 -- -- 92
2021-01-30 21:00:00 -0.3 3 Este 9 Este 0 -- -- 93
2021-01-30 20:00:00 1.3 6 Oeste 21 Sudoeste 0 -- -- 87
2021-01-30 19:00:00 1.8 3 Sudeste 17 Oeste 0 -- -- 84
2021-01-30 18:00:00 4.9 12 Norte 29 Norte 0 -- -- 66
2021-01-30 17:00:00 5.4 6 Nordeste 31 Norte 0 -- -- 72
2021-01-30 16:00:00 6 11 Nordeste 25 Nordeste 0 -- -- 74
2021-01-30 15:00:00 5.9 9 Sudoeste 16 Noroeste 0 -- -- 81
2021-01-30 14:00:00 6 9 Norte 24 Norte 0.8 -- -- 78
2021-01-30 13:00:00 7.4 13 Norte 31 Norte 0 -- -- 70
2021-01-30 12:00:00 9.1 5 Este 8 Este 0 -- -- 68
2021-01-30 11:00:00 5.9 4 Este 8 Este 0 -- -- 96
2021-01-30 10:00:00 2.9 2 Noroeste 20 Oeste 0.4 -- -- 98
2021-01-30 09:00:00 2.2 2 Sudeste 10 Sudoeste 1.8 -- -- 98
2021-01-30 08:00:00 1.6 3 Este 10 Sudoeste 0 -- -- 96
2021-01-30 07:00:00 1.3 2 Sur 13 Oeste 0 -- -- 95
2021-01-30 06:00:00 1.4 4 Sur 19 Sudoeste 0 -- -- 94
2021-01-30 05:00:00 1.1 4 Noroeste 10 Sudoeste 0 -- -- 97
2021-01-30 04:00:00 0.2 3 Nordeste 9 Oeste 0 -- -- 98
2021-01-30 03:00:00 0.1 3 Este 9 Oeste 0 -- -- 97
2021-01-30 02:00:00 0.6 3 Este 8 Oeste 0 -- -- 96
2021-01-30 01:00:00 1.4 2 Nordeste 10 Sudoeste 0 -- -- 93
2021-01-30 00:00:00 2.4 2 Este 10 Oeste 0 -- -- 90
2021-01-29 23:00:00 3.6 3 Sur 23 Sudoeste 0 -- -- 85
2021-01-29 22:00:00 3.7 3 Este 9 Este 0 -- -- 86
2021-01-29 21:00:00 3.6 3 Sur 9 Noroeste 0 -- -- 87
2021-01-29 20:00:00 4.7 4 Oeste 10 Sudoeste 0 -- -- 84
2021-01-29 19:00:00 6.5 5 Este 9 Sudoeste 0 -- -- 81
2021-01-29 18:00:00 8.5 3 Norte 10 Norte 0 -- -- 72
2021-01-29 17:00:00 13.1 3 Sudoeste 11 Oeste 0 -- -- 59
2021-01-29 16:00:00 13.7 9 Oeste 15 Oeste 0 -- -- 59
2021-01-29 15:00:00 15.3 4 Sur 18 Sudoeste 0 -- -- 53
2021-01-29 14:00:00 13.8 10 Sudoeste 17 Sudoeste 0 -- -- 60
2021-01-29 13:00:00 13.2 3 Sudoeste 11 Sur 0 -- -- 58
2021-01-29 12:00:00 12.1 3 Sudeste 10 Sudoeste 0 -- -- 62
2021-01-29 11:00:00 8 5 Sur 12 Oeste 0 -- -- 76
2021-01-29 10:00:00 3.2 0 Calma 8 Este 0 -- -- 95
2021-01-29 09:00:00 0.9 3 Este 9 Sudeste 0 -- -- 97
2021-01-29 08:00:00 -0.1 4 Sur 9 Oeste 0 -- -- 98
2021-01-29 07:00:00 0.2 3 Sudeste 11 Sudeste 0 -- -- 97
2021-01-29 06:00:00 0.2 4 Sudoeste 9 Oeste 0 -- -- 96
2021-01-29 05:00:00 0.2 4 Este 9 Sudeste 0 -- -- 97
2021-01-29 04:00:00 0.6 4 Noroeste 10 Sudeste 0 -- -- 96
2021-01-29 03:00:00 1 3 Sudeste 9 Noroeste 0 -- -- 95
2021-01-29 02:00:00 1.1 2 Este 9 Sudeste 0 -- -- 96
2021-01-29 01:00:00 1.2 5 Este 10 Sudeste 0 -- -- 96
2021-01-29 00:00:00 1.4 3 Noroeste 6 Nordeste 0 -- -- 95
2021-01-28 23:00:00 2 2 Norte 6 Este 0 -- -- 94
2021-01-28 22:00:00 1.7 0 Calma 7 Sudeste 0 -- -- 93
2021-01-28 21:00:00 2.3 2 Sudeste 8 Sudoeste 0 -- -- 92
2021-01-28 20:00:00 4.1 3 Este 6 Sudoeste 0 -- -- 88
2021-01-28 19:00:00 5.7 4 Sudeste 9 Norte 0 -- -- 83
2021-01-28 18:00:00 8.3 3 Nordeste 8 Noroeste 0 -- -- 73
2021-01-28 17:00:00 13.9 0 Calma 11 Sudoeste 0 -- -- 57
2021-01-28 16:00:00 15.5 8 Oeste 14 Sudoeste 0 -- -- 49
2021-01-28 15:00:00 14.2 6 Oeste 10 Sudoeste 0 -- -- 52
2021-01-28 14:00:00 13.1 6 Oeste 10 Sudoeste 0 -- -- 50
2021-01-28 13:00:00 10.7 4 Sur 11 Sudoeste 0 -- -- 57
2021-01-28 12:00:00 8 3 Este 12 Sudoeste 0 -- -- 69
2021-01-28 11:00:00 5.5 4 Este 10 Este 0 -- -- 79
2021-01-28 10:00:00 1.3 8 Nordeste 14 Este 0 -- -- 99
2021-01-28 09:00:00 -0.2 2 Sudoeste 7 Sudeste 0 -- -- 99
2021-01-28 08:00:00 -0.7 3 Nordeste 12 Nordeste 0 -- -- 99
2021-01-28 07:00:00 -0.1 3 Nordeste 7 Este 0 -- -- 99
2021-01-28 06:00:00 -0.2 4 Este 9 Oeste 0 -- -- 98
2021-01-28 05:00:00 0.4 4 Nordeste 6 Este 0 -- -- 98
2021-01-28 04:00:00 0.8 6 Sudoeste 13 Oeste 0 -- -- 98
2021-01-28 03:00:00 1.3 3 Norte 12 Sudoeste 0 -- -- 98
2021-01-28 02:00:00 1.4 4 Este 8 Sudeste 0 -- -- 97
2021-01-28 01:00:00 2.6 4 Nordeste 9 Este 0 -- -- 95
2021-01-28 00:00:00 3.2 4 Este 10 Sudoeste 0 -- -- 93
2021-01-27 23:00:00 5.1 4 Noroeste 12 Oeste 0 -- -- 89
2021-01-27 22:00:00 6.9 5 Sudeste 12 Este 0 -- -- 82
2021-01-27 21:00:00 8.3 9 Sudoeste 23 Sudoeste 0 -- -- 77
2021-01-27 20:00:00 7.6 4 Sur 13 Sudoeste 0 -- -- 84
2021-01-27 19:00:00 10.1 6 Sudoeste 23 Este 0 -- -- 70
2021-01-27 18:00:00 13.2 9 Nordeste 37 Nordeste 0 -- -- 55
2021-01-27 17:00:00 14.5 12 Este 44 Nordeste 0 -- -- 47
2021-01-27 16:00:00 15 22 Este 51 Este 0 -- -- 45
2021-01-27 15:00:00 15 16 Este 37 Nordeste 0 -- -- 48
2021-01-27 14:00:00 14.6 14 Este 36 Este 0 -- -- 54
2021-01-27 13:00:00 11.3 6 Oeste 17 Sudoeste 0 -- -- 82
2021-01-27 12:00:00 8.8 5 Este 10 Sudeste 0 -- -- 97
2021-01-27 11:00:00 5.3 2 Sudoeste 10 Sudoeste 0.8 -- -- 98
2021-01-27 10:00:00 3.3 4 Sudeste 9 Sudeste 0.4 -- -- 99
2021-01-27 09:00:00 2.1 3 Nordeste 13 Sudoeste 0.6 -- -- 99
2021-01-27 08:00:00 1.1 9 Oeste 15 Sudoeste 0.4 -- -- 98
2021-01-27 07:00:00 0.7 0 Calma 8 Sudoeste 1.8 -- -- 98
2021-01-27 06:00:00 0.6 3 Noroeste 12 Sudoeste 1.6 -- -- 98
2021-01-27 05:00:00 0.1 5 Este 11 Oeste 0.6 -- -- 96
2021-01-27 04:00:00 -0.6 6 Sudoeste 14 Oeste 0 -- -- 93
2021-01-27 03:00:00 -0.8 3 Nordeste 8 Sudeste 0 -- -- 93
2021-01-27 02:00:00 -0.8 5 Sudeste 11 Oeste 0 -- -- 92
2021-01-27 01:00:00 -1.2 5 Nordeste 14 Sudoeste 0 -- -- 92
2021-01-27 00:00:00 -1.2 5 Noroeste 9 Sudeste 0 -- -- 92
2021-01-26 23:00:00 -0.7 4 Nordeste 13 Oeste 0 -- -- 91
2021-01-26 22:00:00 -0.8 3 Sudoeste 11 Oeste 0 -- -- 90
2021-01-26 21:00:00 -0.1 4 Nordeste 9 Nordeste 0 -- -- 88
2021-01-26 20:00:00 0.4 4 Este 10 Oeste 0 -- -- 85
2021-01-26 19:00:00 1.2 4 Sudeste 13 Sudoeste 0 -- -- 83
2021-01-26 18:00:00 3.1 3 Norte 9 Sudoeste 0 -- -- 75
2021-01-26 17:00:00 7.4 3 Sudoeste 10 Sudoeste 0 -- -- 56
2021-01-26 16:00:00 9 5 Sudoeste 11 Sudoeste 0 -- -- 45
2021-01-26 15:00:00 9.9 6 Sudoeste 11 Sudoeste 0 -- -- 42
2021-01-26 14:00:00 7.4 6 Sur 12 Sudoeste 0 -- -- 48
2021-01-26 13:00:00 5.3 3 Sudoeste 9 Sudoeste 0 -- -- 48
2021-01-26 12:00:00 4.5 0 Calma 6 Este 0 -- -- 50
2021-01-26 11:00:00 1.1 3 Sudoeste 8 Sudeste 0 -- -- 65
2021-01-26 10:00:00 -4.2 0 Calma 6 Sudeste 0 -- -- 87
2021-01-26 09:00:00 -5.3 0 Calma 8 Oeste 0 -- -- 89
2021-01-26 08:00:00 -5.8 3 Sudeste 9 Sudoeste 0 -- -- 92
2021-01-26 07:00:00 -5.1 3 Norte 12 Oeste 0 -- -- 91
2021-01-26 06:00:00 -5 3 Este 10 Oeste 0 -- -- 90
2021-01-26 05:00:00 -4.6 2 Sudeste 8 Sudeste 0 -- -- 88
2021-01-26 04:00:00 -3.1 4 Este 13 Oeste 0 -- -- 83
2021-01-26 03:00:00 -4.5 4 Sudeste 6 Oeste 0 -- -- 88
2021-01-26 02:00:00 -3.8 2 Nordeste 9 Sudeste 0 -- -- 88
2021-01-26 01:00:00 -3.2 3 Nordeste 10 Oeste 0 -- -- 90
2021-01-26 00:00:00 -2.9 2 Este 8 Oeste 0 -- -- 87
2021-01-25 23:00:00 -1.8 3 Sudeste 9 Sudoeste 0 -- -- 86
2021-01-25 22:00:00 0 0 Calma 16 Sudoeste 0 -- -- 76
2021-01-25 21:00:00 3 5 Sur 35 Nordeste 0 -- -- 62
2021-01-25 20:00:00 5.3 21 Nordeste 53 Este 0 -- -- 52
2021-01-25 19:00:00 6.2 21 Nordeste 41 Este 0 -- -- 51
2021-01-25 18:00:00 6.8 19 Este 37 Este 0 -- -- 51
2021-01-25 17:00:00 7.7 16 Este 39 Nordeste 0 -- -- 49
2021-01-25 16:00:00 6.7 3 Sudoeste 9 Sudoeste 0 -- -- 67
2021-01-25 15:00:00 7.2 3 Oeste 6 Sudoeste 0 -- -- 63
2021-01-25 14:00:00 7.2 2 Sur 5 Sudeste 0 -- -- 64
2021-01-25 13:00:00 4.4 5 Sudoeste 10 Sudoeste 0 -- -- 71
2021-01-25 12:00:00 3.5 2 Este 5 Oeste 0 -- -- 74
2021-01-25 11:00:00 1.9 0 Calma 6 Noroeste 0 -- -- 84
2021-01-25 10:00:00 0 3 Sur 6 Sudeste 0 -- -- 94
2021-01-25 09:00:00 -1 0 Calma 4 Sudeste 0 -- -- 96
2021-01-25 08:00:00 -1.4 3 Sur 7 Oeste 0 -- -- 97
2021-01-25 07:00:00 -2 0 Calma 6 Oeste 0 -- -- 97
2021-01-25 06:00:00 -2.6 2 Sur 6 Noroeste 0 -- -- 97
2021-01-25 05:00:00 -3.2 0 Calma 6 Sudeste 0 -- -- 97
2021-01-25 04:00:00 -2.5 4 Oeste 8 Oeste 0 -- -- 98
2021-01-25 03:00:00 -2.8 0 Calma 9 Oeste 0 -- -- 98
2021-01-25 02:00:00 -2.2 2 Sur 9 Sudoeste 0 -- -- 98
2021-01-25 01:00:00 -2.5 3 Sudeste 6 Noroeste 0 -- -- 97
2021-01-25 00:00:00 -1.8 3 Este 6 Sudeste 0 -- -- 96